Terminal Aerodrome Forecast
Issued by NWS

Home | Current Version | Previous Version | Text Only | Print | Product List | Glossary On
Versions: 1 2 3 4 5 6 7 8 9 10 11 12 13 14 15 16 17 18
000
FTUS43 KGRB 301120
TAFAUW
TAF
KAUW 301120Z 3012/3112 28007KT P6SM SKC
     FM302200 23005KT P6SM SCT090
     FM310200 14004KT P6SM SCT090
     FM310600 14004KT P6SM VCSH BKN080
      TEMPO 3109/3112 -SHRA OVC050=

USA.gov is the U.S. government's official web portal to all federal, state and local government web resources and services.